sensor_id;sensor_type;location;lat;lon;timestamp;temperature;humidity
42201;DHT22;27869;51.442;7.540;2022-08-19T00:01:11;17.40;99.90
42201;DHT22;27869;51.442;7.540;2022-08-19T00:03:39;17.40;99.90
42201;DHT22;27869;51.442;7.540;2022-08-19T00:06:06;17.40;99.90
42201;DHT22;27869;51.442;7.540;2022-08-19T00:08:33;17.30;99.90
42201;DHT22;27869;51.442;7.540;2022-08-19T00:11:00;17.30;99.90
42201;DHT22;27869;51.442;7.540;2022-08-19T00:13:26;17.30;99.90
42201;DHT22;27869;51.442;7.540;2022-08-19T00:15:54;17.30;99.90
42201;DHT22;27869;51.442;7.540;2022-08-19T00:18:22;17.30;99.90
42201;DHT22;27869;51.442;7.540;2022-08-19T00:20:49;17.30;99.90
42201;DHT22;27869;51.442;7.540;2022-08-19T00:23:16;17.20;99.90
42201;DHT22;27869;51.442;7.540;2022-08-19T00:25:43;17.30;99.90
42201;DHT22;27869;51.442;7.540;2022-08-19T00:28:11;17.20;99.90
42201;DHT22;27869;51.442;7.540;2022-08-19T00:30:38;17.20;99.90
42201;DHT22;27869;51.442;7.540;2022-08-19T00:33:04;17.20;99.90
42201;DHT22;27869;51.442;7.540;2022-08-19T00:35:34;17.20;99.90
42201;DHT22;27869;51.442;7.540;2022-08-19T00:38:03;17.10;99.90
42201;DHT22;27869;51.442;7.540;2022-08-19T00:40:32;17.10;99.90
42201;DHT22;27869;51.442;7.540;2022-08-19T00:42:59;17.10;99.90
42201;DHT22;27869;51.442;7.540;2022-08-19T00:45:28;17.10;99.90
42201;DHT22;27869;51.442;7.540;2022-08-19T00:47:57;17.00;99.90
42201;DHT22;27869;51.442;7.540;2022-08-19T00:50:24;17.00;99.90
42201;DHT22;27869;51.442;7.540;2022-08-19T00:52:52;17.00;99.90
42201;DHT22;27869;51.442;7.540;2022-08-19T00:55:24;16.90;99.90
42201;DHT22;27869;51.442;7.540;2022-08-19T00:57:54;16.90;99.90
42201;DHT22;27869;51.442;7.540;2022-08-19T01:00:24;16.90;99.90
42201;DHT22;27869;51.442;7.540;2022-08-19T01:02:54;16.90;99.90
42201;DHT22;27869;51.442;7.540;2022-08-19T01:05:23;16.90;99.90
42201;DHT22;27869;51.442;7.540;2022-08-19T01:07:54;16.90;99.90
42201;DHT22;27869;51.442;7.540;2022-08-19T01:10:25;16.90;99.90
42201;DHT22;27869;51.442;7.540;2022-08-19T01:12:55;16.90;99.90
42201;DHT22;27869;51.442;7.540;2022-08-19T01:15:26;16.80;99.90
42201;DHT22;27869;51.442;7.540;2022-08-19T01:17:55;16.80;99.90
42201;DHT22;27869;51.442;7.540;2022-08-19T01:20:23;16.80;99.90
42201;DHT22;27869;51.442;7.540;2022-08-19T01:22:53;16.80;99.90
42201;DHT22;27869;51.442;7.540;2022-08-19T01:25:24;16.80;99.90
42201;DHT22;27869;51.442;7.540;2022-08-19T01:27:53;16.80;99.90
42201;DHT22;27869;51.442;7.540;2022-08-19T01:30:26;16.80;99.90
42201;DHT22;27869;51.442;7.540;2022-08-19T01:32:54;16.70;99.90
42201;DHT22;27869;51.442;7.540;2022-08-19T01:35:25;16.70;99.90
42201;DHT22;27869;51.442;7.540;2022-08-19T01:37:56;16.70;99.90
42201;DHT22;27869;51.442;7.540;2022-08-19T01:40:26;16.70;99.90
42201;DHT22;27869;51.442;7.540;2022-08-19T01:42:54;16.70;99.90
42201;DHT22;27869;51.442;7.540;2022-08-19T01:45:24;16.60;99.90
42201;DHT22;27869;51.442;7.540;2022-08-19T01:47:51;16.60;99.90
42201;DHT22;27869;51.442;7.540;2022-08-19T01:50:18;16.60;99.90
42201;DHT22;27869;51.442;7.540;2022-08-19T01:52:46;16.60;99.90
42201;DHT22;27869;51.442;7.540;2022-08-19T01:55:17;16.60;99.90
42201;DHT22;27869;51.442;7.540;2022-08-19T01:57:51;16.60;99.90
42201;DHT22;27869;51.442;7.540;2022-08-19T02:00:20;16.50;99.90
42201;DHT22;27869;51.442;7.540;2022-08-19T02:02:47;16.50;99.90
42201;DHT22;27869;51.442;7.540;2022-08-19T02:05:14;16.50;99.90
42201;DHT22;27869;51.442;7.540;2022-08-19T02:07:47;16.40;99.90
42201;DHT22;27869;51.442;7.540;2022-08-19T02:10:17;16.40;99.90
42201;DHT22;27869;51.442;7.540;2022-08-19T02:12:45;16.40;99.90
42201;DHT22;27869;51.442;7.540;2022-08-19T02:15:12;16.40;99.90
42201;DHT22;27869;51.442;7.540;2022-08-19T02:17:42;16.40;99.90
42201;DHT22;27869;51.442;7.540;2022-08-19T02:20:11;16.30;99.90
42201;DHT22;27869;51.442;7.540;2022-08-19T02:22:38;16.30;99.90
42201;DHT22;27869;51.442;7.540;2022-08-19T02:25:07;16.30;99.90
42201;DHT22;27869;51.442;7.540;2022-08-19T02:27:37;16.30;99.90
42201;DHT22;27869;51.442;7.540;2022-08-19T02:30:06;16.30;99.90
42201;DHT22;27869;51.442;7.540;2022-08-19T02:32:33;16.30;99.90
42201;DHT22;27869;51.442;7.540;2022-08-19T02:35:01;16.30;99.90
42201;DHT22;27869;51.442;7.540;2022-08-19T02:37:28;16.30;99.90
42201;DHT22;27869;51.442;7.540;2022-08-19T02:40:13;16.30;99.90
42201;DHT22;27869;51.442;7.540;2022-08-19T02:42:41;16.20;99.90
42201;DHT22;27869;51.442;7.540;2022-08-19T02:45:09;16.20;99.90
42201;DHT22;27869;51.442;7.540;2022-08-19T02:47:36;16.20;99.90
42201;DHT22;27869;51.442;7.540;2022-08-19T02:50:04;16.20;99.90
42201;DHT22;27869;51.442;7.540;2022-08-19T02:52:32;16.20;99.90
42201;DHT22;27869;51.442;7.540;2022-08-19T02:55:00;16.20;99.90
42201;DHT22;27869;51.442;7.540;2022-08-19T02:57:27;16.20;99.90
42201;DHT22;27869;51.442;7.540;2022-08-19T02:59:56;16.20;99.90
42201;DHT22;27869;51.442;7.540;2022-08-19T03:02:22;16.20;99.90
42201;DHT22;27869;51.442;7.540;2022-08-19T03:04:49;16.20;99.90
42201;DHT22;27869;51.442;7.540;2022-08-19T03:07:18;16.10;99.90
42201;DHT22;27869;51.442;7.540;2022-08-19T03:09:45;16.10;99.90
42201;DHT22;27869;51.442;7.540;2022-08-19T03:12:12;16.10;99.90
42201;DHT22;27869;51.442;7.540;2022-08-19T03:14:39;16.10;99.90
42201;DHT22;27869;51.442;7.540;2022-08-19T03:17:08;16.10;99.90
42201;DHT22;27869;51.442;7.540;2022-08-19T03:19:35;16.10;99.90
42201;DHT22;27869;51.442;7.540;2022-08-19T03:22:02;16.10;99.90
42201;DHT22;27869;51.442;7.540;2022-08-19T03:24:30;16.00;99.90
42201;DHT22;27869;51.442;7.540;2022-08-19T03:26:58;16.00;99.90
42201;DHT22;27869;51.442;7.540;2022-08-19T03:29:26;16.00;99.90
42201;DHT22;27869;51.442;7.540;2022-08-19T03:31:54;16.00;99.90
42201;DHT22;27869;51.442;7.540;2022-08-19T03:34:24;16.00;99.90
42201;DHT22;27869;51.442;7.540;2022-08-19T03:36:52;16.00;99.90
42201;DHT22;27869;51.442;7.540;2022-08-19T03:39:19;15.90;99.90
42201;DHT22;27869;51.442;7.540;2022-08-19T03:41:48;15.90;99.90
42201;DHT22;27869;51.442;7.540;2022-08-19T03:44:17;15.90;99.90
42201;DHT22;27869;51.442;7.540;2022-08-19T03:46:46;15.90;99.90
42201;DHT22;27869;51.442;7.540;2022-08-19T03:49:13;15.90;99.90
42201;DHT22;27869;51.442;7.540;2022-08-19T03:51:42;15.90;99.90
42201;DHT22;27869;51.442;7.540;2022-08-19T03:54:11;15.90;99.90
42201;DHT22;27869;51.442;7.540;2022-08-19T03:56:40;15.90;99.90
42201;DHT22;27869;51.442;7.540;2022-08-19T03:59:09;15.90;99.90
42201;DHT22;27869;51.442;7.540;2022-08-19T04:01:37;15.90;99.90
42201;DHT22;27869;51.442;7.540;2022-08-19T04:04:04;15.80;99.90
42201;DHT22;27869;51.442;7.540;2022-08-19T04:06:33;15.80;99.90
42201;DHT22;27869;51.442;7.540;2022-08-19T04:09:04;15.80;99.90
42201;DHT22;27869;51.442;7.540;2022-08-19T04:11:34;15.80;99.90
42201;DHT22;27869;51.442;7.540;2022-08-19T04:14:01;15.80;99.90
42201;DHT22;27869;51.442;7.540;2022-08-19T04:16:28;15.80;99.90
42201;DHT22;27869;51.442;7.540;2022-08-19T04:18:56;15.80;99.90
42201;DHT22;27869;51.442;7.540;2022-08-19T04:21:25;15.80;99.90
42201;DHT22;27869;51.442;7.540;2022-08-19T04:23:52;15.70;99.90
42201;DHT22;27869;51.442;7.540;2022-08-19T04:26:22;15.70;99.90
42201;DHT22;27869;51.442;7.540;2022-08-19T04:28:50;15.70;99.90
42201;DHT22;27869;51.442;7.540;2022-08-19T04:31:21;15.70;99.90
42201;DHT22;27869;51.442;7.540;2022-08-19T04:33:48;15.70;99.90
42201;DHT22;27869;51.442;7.540;2022-08-19T04:36:17;15.70;99.90
42201;DHT22;27869;51.442;7.540;2022-08-19T04:38:46;15.70;99.90
42201;DHT22;27869;51.442;7.540;2022-08-19T04:41:13;15.70;99.90
42201;DHT22;27869;51.442;7.540;2022-08-19T04:43:59;15.70;99.90
42201;DHT22;27869;51.442;7.540;2022-08-19T04:46:26;15.70;99.90
42201;DHT22;27869;51.442;7.540;2022-08-19T04:48:54;15.70;99.90
42201;DHT22;27869;51.442;7.540;2022-08-19T04:51:22;15.70;99.90
42201;DHT22;27869;51.442;7.540;2022-08-19T04:53:50;15.70;99.90
42201;DHT22;27869;51.442;7.540;2022-08-19T04:56:20;15.70;99.90
42201;DHT22;27869;51.442;7.540;2022-08-19T04:58:48;15.70;99.90
42201;DHT22;27869;51.442;7.540;2022-08-19T05:01:20;15.70;99.90
42201;DHT22;27869;51.442;7.540;2022-08-19T05:03:48;15.70;99.90
42201;DHT22;27869;51.442;7.540;2022-08-19T05:06:16;15.70;99.90
42201;DHT22;27869;51.442;7.540;2022-08-19T05:08:44;15.70;99.90
42201;DHT22;27869;51.442;7.540;2022-08-19T05:11:13;15.60;99.90
42201;DHT22;27869;51.442;7.540;2022-08-19T05:13:41;15.70;99.90
42201;DHT22;27869;51.442;7.540;2022-08-19T05:16:10;15.70;99.90
42201;DHT22;27869;51.442;7.540;2022-08-19T05:18:39;15.70;99.90
42201;DHT22;27869;51.442;7.540;2022-08-19T05:21:24;15.70;99.90
42201;DHT22;27869;51.442;7.540;2022-08-19T05:24:09;15.70;99.90
42201;DHT22;27869;51.442;7.540;2022-08-19T05:26:36;15.70;99.90
42201;DHT22;27869;51.442;7.540;2022-08-19T05:29:03;15.70;99.90
42201;DHT22;27869;51.442;7.540;2022-08-19T05:31:31;15.80;99.90
42201;DHT22;27869;51.442;7.540;2022-08-19T05:34:00;15.80;99.90
42201;DHT22;27869;51.442;7.540;2022-08-19T05:36:28;15.80;99.90
42201;DHT22;27869;51.442;7.540;2022-08-19T05:38:55;15.80;99.90
42201;DHT22;27869;51.442;7.540;2022-08-19T05:41:22;15.80;99.90
42201;DHT22;27869;51.442;7.540;2022-08-19T05:43:56;15.80;99.90
42201;DHT22;27869;51.442;7.540;2022-08-19T05:46:23;15.90;99.90
42201;DHT22;27869;51.442;7.540;2022-08-19T05:48:50;16.00;99.90
42201;DHT22;27869;51.442;7.540;2022-08-19T05:51:18;16.00;99.90
42201;DHT22;27869;51.442;7.540;2022-08-19T05:53:45;16.10;99.90
42201;DHT22;27869;51.442;7.540;2022-08-19T05:56:15;16.10;99.90
42201;DHT22;27869;51.442;7.540;2022-08-19T05:58:44;16.20;99.90
42201;DHT22;27869;51.442;7.540;2022-08-19T06:01:13;16.20;99.90
42201;DHT22;27869;51.442;7.540;2022-08-19T06:03:41;16.30;99.90
42201;DHT22;27869;51.442;7.540;2022-08-19T06:06:10;16.30;99.90
42201;DHT22;27869;51.442;7.540;2022-08-19T06:08:39;16.30;99.90
42201;DHT22;27869;51.442;7.540;2022-08-19T06:11:14;16.40;99.90
42201;DHT22;27869;51.442;7.540;2022-08-19T06:13:42;16.40;99.90
42201;DHT22;27869;51.442;7.540;2022-08-19T06:16:10;16.40;99.90
42201;DHT22;27869;51.442;7.540;2022-08-19T06:18:37;16.40;99.90
42201;DHT22;27869;51.442;7.540;2022-08-19T06:21:05;16.50;99.90
42201;DHT22;27869;51.442;7.540;2022-08-19T06:23:31;16.50;99.90
42201;DHT22;27869;51.442;7.540;2022-08-19T06:26:01;16.50;99.90
42201;DHT22;27869;51.442;7.540;2022-08-19T06:28:28;16.50;99.90
42201;DHT22;27869;51.442;7.540;2022-08-19T06:30:55;16.60;99.90
42201;DHT22;27869;51.442;7.540;2022-08-19T06:33:22;16.60;99.90
42201;DHT22;27869;51.442;7.540;2022-08-19T06:35:49;16.70;99.90
42201;DHT22;27869;51.442;7.540;2022-08-19T06:38:16;16.70;99.90
42201;DHT22;27869;51.442;7.540;2022-08-19T06:40:43;16.70;99.90
42201;DHT22;27869;51.442;7.540;2022-08-19T06:43:12;16.80;99.90
42201;DHT22;27869;51.442;7.540;2022-08-19T06:45:41;16.80;99.90
42201;DHT22;27869;51.442;7.540;2022-08-19T06:48:08;16.90;99.90
42201;DHT22;27869;51.442;7.540;2022-08-19T06:50:35;16.90;99.90
42201;DHT22;27869;51.442;7.540;2022-08-19T06:53:02;16.90;99.90
42201;DHT22;27869;51.442;7.540;2022-08-19T06:55:31;17.00;99.90
42201;DHT22;27869;51.442;7.540;2022-08-19T06:57:58;17.10;99.90
42201;DHT22;27869;51.442;7.540;2022-08-19T07:00:29;17.10;99.90
42201;DHT22;27869;51.442;7.540;2022-08-19T07:02:56;17.20;99.90
42201;DHT22;27869;51.442;7.540;2022-08-19T07:05:24;17.20;99.90
42201;DHT22;27869;51.442;7.540;2022-08-19T07:07:51;17.30;99.90
42201;DHT22;27869;51.442;7.540;2022-08-19T07:10:18;17.40;99.90
42201;DHT22;27869;51.442;7.540;2022-08-19T07:12:45;17.50;99.90
42201;DHT22;27869;51.442;7.540;2022-08-19T07:15:13;17.60;99.90
42201;DHT22;27869;51.442;7.540;2022-08-19T07:17:42;17.70;99.90
42201;DHT22;27869;51.442;7.540;2022-08-19T07:20:10;17.80;99.90
42201;DHT22;27869;51.442;7.540;2022-08-19T07:22:37;18.00;99.90
42201;DHT22;27869;51.442;7.540;2022-08-19T07:25:07;18.10;99.90
42201;DHT22;27869;51.442;7.540;2022-08-19T07:27:34;18.30;99.90
42201;DHT22;27869;51.442;7.540;2022-08-19T07:30:03;18.40;99.90
42201;DHT22;27869;51.442;7.540;2022-08-19T07:32:30;18.60;99.90
42201;DHT22;27869;51.442;7.540;2022-08-19T07:34:59;18.70;99.90
42201;DHT22;27869;51.442;7.540;2022-08-19T07:37:28;18.80;99.90
42201;DHT22;27869;51.442;7.540;2022-08-19T07:39:55;19.00;99.90
42201;DHT22;27869;51.442;7.540;2022-08-19T07:42:22;19.20;99.90
42201;DHT22;27869;51.442;7.540;2022-08-19T07:44:49;19.30;99.90
42201;DHT22;27869;51.442;7.540;2022-08-19T07:47:16;19.50;99.90
42201;DHT22;27869;51.442;7.540;2022-08-19T07:49:43;19.60;99.90
42201;DHT22;27869;51.442;7.540;2022-08-19T07:52:12;19.70;99.90
42201;DHT22;27869;51.442;7.540;2022-08-19T07:54:39;19.90;99.90
42201;DHT22;27869;51.442;7.540;2022-08-19T07:57:06;20.00;99.90
42201;DHT22;27869;51.442;7.540;2022-08-19T07:59:33;20.20;99.90
42201;DHT22;27869;51.442;7.540;2022-08-19T08:02:01;20.40;99.90
42201;DHT22;27869;51.442;7.540;2022-08-19T08:04:29;20.50;99.90
42201;DHT22;27869;51.442;7.540;2022-08-19T08:07:16;20.70;99.90
42201;DHT22;27869;51.442;7.540;2022-08-19T08:10:01;20.90;99.90
42201;DHT22;27869;51.442;7.540;2022-08-19T08:12:31;21.20;99.90
42201;DHT22;27869;51.442;7.540;2022-08-19T08:15:00;21.40;99.90
42201;DHT22;27869;51.442;7.540;2022-08-19T08:17:29;21.60;99.90
42201;DHT22;27869;51.442;7.540;2022-08-19T08:19:56;21.80;99.90
42201;DHT22;27869;51.442;7.540;2022-08-19T08:22:25;22.00;99.90
42201;DHT22;27869;51.442;7.540;2022-08-19T08:25:12;22.20;99.90
42201;DHT22;27869;51.442;7.540;2022-08-19T08:27:41;22.40;99.90
42201;DHT22;27869;51.442;7.540;2022-08-19T08:30:09;22.60;99.90
42201;DHT22;27869;51.442;7.540;2022-08-19T08:32:37;22.70;99.90
42201;DHT22;27869;51.442;7.540;2022-08-19T08:35:05;22.90;99.90
42201;DHT22;27869;51.442;7.540;2022-08-19T08:37:34;23.10;99.90
42201;DHT22;27869;51.442;7.540;2022-08-19T08:40:02;23.20;99.90
42201;DHT22;27869;51.442;7.540;2022-08-19T08:42:34;23.40;99.90
42201;DHT22;27869;51.442;7.540;2022-08-19T08:45:08;23.50;99.90
42201;DHT22;27869;51.442;7.540;2022-08-19T08:47:43;23.60;99.90
42201;DHT22;27869;51.442;7.540;2022-08-19T08:50:18;23.70;99.90
42201;DHT22;27869;51.442;7.540;2022-08-19T08:52:50;23.80;99.90
42201;DHT22;27869;51.442;7.540;2022-08-19T08:55:21;24.00;99.90
42201;DHT22;27869;51.442;7.540;2022-08-19T08:57:52;24.10;99.90
42201;DHT22;27869;51.442;7.540;2022-08-19T09:00:24;24.30;99.90
42201;DHT22;27869;51.442;7.540;2022-08-19T09:02:52;24.40;99.90
42201;DHT22;27869;51.442;7.540;2022-08-19T09:05:20;24.60;99.90
42201;DHT22;27869;51.442;7.540;2022-08-19T09:07:56;24.70;99.90
42201;DHT22;27869;51.442;7.540;2022-08-19T09:10:31;24.80;99.90
42201;DHT22;27869;51.442;7.540;2022-08-19T09:13:10;24.90;99.90
42201;DHT22;27869;51.442;7.540;2022-08-19T09:15:43;25.00;99.90
42201;DHT22;27869;51.442;7.540;2022-08-19T09:18:11;25.10;99.90
42201;DHT22;27869;51.442;7.540;2022-08-19T09:20:38;25.30;99.90
42201;DHT22;27869;51.442;7.540;2022-08-19T09:23:06;25.30;99.90
42201;DHT22;27869;51.442;7.540;2022-08-19T09:25:34;25.40;99.90
42201;DHT22;27869;51.442;7.540;2022-08-19T09:28:01;25.50;99.90
42201;DHT22;27869;51.442;7.540;2022-08-19T09:30:32;25.50;99.90
42201;DHT22;27869;51.442;7.540;2022-08-19T09:33:00;25.60;99.90
42201;DHT22;27869;51.442;7.540;2022-08-19T09:35:29;25.70;99.90
42201;DHT22;27869;51.442;7.540;2022-08-19T09:37:56;25.80;99.90
42201;DHT22;27869;51.442;7.540;2022-08-19T09:40:26;25.90;99.90
42201;DHT22;27869;51.442;7.540;2022-08-19T09:42:53;26.00;99.90
42201;DHT22;27869;51.442;7.540;2022-08-19T09:45:22;25.90;99.90
42201;DHT22;27869;51.442;7.540;2022-08-19T09:47:51;26.00;99.90
42201;DHT22;27869;51.442;7.540;2022-08-19T09:50:18;26.10;99.90
42201;DHT22;27869;51.442;7.540;2022-08-19T09:52:45;26.40;99.90
42201;DHT22;27869;51.442;7.540;2022-08-19T09:55:12;26.40;99.90
42201;DHT22;27869;51.442;7.540;2022-08-19T09:57:40;26.40;99.90
42201;DHT22;27869;51.442;7.540;2022-08-19T10:00:09;26.50;99.90
42201;DHT22;27869;51.442;7.540;2022-08-19T10:02:36;26.70;99.90
42201;DHT22;27869;51.442;7.540;2022-08-19T10:05:04;26.70;99.90
42201;DHT22;27869;51.442;7.540;2022-08-19T10:07:49;26.70;99.90
42201;DHT22;27869;51.442;7.540;2022-08-19T10:10:16;26.60;99.90
42201;DHT22;27869;51.442;7.540;2022-08-19T10:12:45;26.60;99.90
42201;DHT22;27869;51.442;7.540;2022-08-19T10:15:13;26.60;99.90
42201;DHT22;27869;51.442;7.540;2022-08-19T10:17:40;26.60;99.90
42201;DHT22;27869;51.442;7.540;2022-08-19T10:20:08;26.70;99.90
42201;DHT22;27869;51.442;7.540;2022-08-19T10:22:35;26.80;99.90
42201;DHT22;27869;51.442;7.540;2022-08-19T10:25:04;26.70;99.90
42201;DHT22;27869;51.442;7.540;2022-08-19T10:27:31;26.80;99.90
42201;DHT22;27869;51.442;7.540;2022-08-19T10:30:00;26.80;99.90
42201;DHT22;27869;51.442;7.540;2022-08-19T10:32:27;26.70;99.90
42201;DHT22;27869;51.442;7.540;2022-08-19T10:34:55;26.80;99.90
42201;DHT22;27869;51.442;7.540;2022-08-19T10:37:22;26.90;99.90
42201;DHT22;27869;51.442;7.540;2022-08-19T10:39:49;27.10;99.90
42201;DHT22;27869;51.442;7.540;2022-08-19T10:42:17;27.00;99.90
42201;DHT22;27869;51.442;7.540;2022-08-19T10:44:44;26.90;99.90
42201;DHT22;27869;51.442;7.540;2022-08-19T10:47:14;26.90;99.90
42201;DHT22;27869;51.442;7.540;2022-08-19T10:49:42;26.70;99.90
42201;DHT22;27869;51.442;7.540;2022-08-19T10:52:26;26.60;99.90
42201;DHT22;27869;51.442;7.540;2022-08-19T10:55:04;26.60;99.90
42201;DHT22;27869;51.442;7.540;2022-08-19T10:57:49;26.60;99.90
42201;DHT22;27869;51.442;7.540;2022-08-19T11:00:18;26.70;99.90
42201;DHT22;27869;51.442;7.540;2022-08-19T11:02:47;26.80;99.90
42201;DHT22;27869;51.442;7.540;2022-08-19T11:05:15;26.80;99.60
42201;DHT22;27869;51.442;7.540;2022-08-19T11:07:43;26.70;99.90
42201;DHT22;27869;51.442;7.540;2022-08-19T11:10:10;26.60;99.60
42201;DHT22;27869;51.442;7.540;2022-08-19T11:12:39;26.60;99.60
42201;DHT22;27869;51.442;7.540;2022-08-19T11:15:07;26.60;99.90
42201;DHT22;27869;51.442;7.540;2022-08-19T11:17:37;26.60;99.90
42201;DHT22;27869;51.442;7.540;2022-08-19T11:20:08;26.60;99.90
42201;DHT22;27869;51.442;7.540;2022-08-19T11:22:35;26.60;99.90
42201;DHT22;27869;51.442;7.540;2022-08-19T11:25:03;26.70;99.90
42201;DHT22;27869;51.442;7.540;2022-08-19T11:27:30;26.80;99.90
42201;DHT22;27869;51.442;7.540;2022-08-19T11:29:57;26.80;99.40
42201;DHT22;27869;51.442;7.540;2022-08-19T11:32:24;26.80;99.70
42201;DHT22;27869;51.442;7.540;2022-08-19T11:34:51;26.70;99.10
42201;DHT22;27869;51.442;7.540;2022-08-19T11:37:19;26.70;98.90
42201;DHT22;27869;51.442;7.540;2022-08-19T11:39:46;26.80;98.60
42201;DHT22;27869;51.442;7.540;2022-08-19T11:42:13;26.80;98.20
42201;DHT22;27869;51.442;7.540;2022-08-19T11:44:58;26.90;97.50
42201;DHT22;27869;51.442;7.540;2022-08-19T11:47:25;26.90;97.90
42201;DHT22;27869;51.442;7.540;2022-08-19T11:49:52;26.90;98.00
42201;DHT22;27869;51.442;7.540;2022-08-19T11:52:20;27.00;98.00
42201;DHT22;27869;51.442;7.540;2022-08-19T11:54:47;27.00;97.80
42201;DHT22;27869;51.442;7.540;2022-08-19T11:57:14;27.10;97.90
42201;DHT22;27869;51.442;7.540;2022-08-19T11:59:42;27.10;97.50
42201;DHT22;27869;51.442;7.540;2022-08-19T12:02:13;27.20;97.00
42201;DHT22;27869;51.442;7.540;2022-08-19T12:04:41;27.10;96.50
42201;DHT22;27869;51.442;7.540;2022-08-19T12:07:08;27.10;96.90
42201;DHT22;27869;51.442;7.540;2022-08-19T12:09:36;27.20;95.80
42201;DHT22;27869;51.442;7.540;2022-08-19T12:12:05;27.20;95.30
42201;DHT22;27869;51.442;7.540;2022-08-19T12:14:32;27.30;95.70
42201;DHT22;27869;51.442;7.540;2022-08-19T12:16:59;27.30;95.30
42201;DHT22;27869;51.442;7.540;2022-08-19T12:19:27;27.30;95.10
42201;DHT22;27869;51.442;7.540;2022-08-19T12:21:58;27.40;95.50
42201;DHT22;27869;51.442;7.540;2022-08-19T12:24:26;27.40;95.30
42201;DHT22;27869;51.442;7.540;2022-08-19T12:26:56;27.50;95.40
42201;DHT22;27869;51.442;7.540;2022-08-19T12:29:24;27.40;95.00
42201;DHT22;27869;51.442;7.540;2022-08-19T12:31:54;27.40;95.10
42201;DHT22;27869;51.442;7.540;2022-08-19T12:34:27;27.40;95.30
42201;DHT22;27869;51.442;7.540;2022-08-19T12:36:55;27.30;94.30
42201;DHT22;27869;51.442;7.540;2022-08-19T12:39:22;27.20;95.10
42201;DHT22;27869;51.442;7.540;2022-08-19T12:41:50;27.10;95.00
42201;DHT22;27869;51.442;7.540;2022-08-19T12:44:18;27.10;95.20
42201;DHT22;27869;51.442;7.540;2022-08-19T12:46:46;27.10;95.40
42201;DHT22;27869;51.442;7.540;2022-08-19T12:49:14;27.10;95.40
42201;DHT22;27869;51.442;7.540;2022-08-19T12:51:42;27.10;95.60
42201;DHT22;27869;51.442;7.540;2022-08-19T12:54:09;27.20;95.50
42201;DHT22;27869;51.442;7.540;2022-08-19T12:56:36;27.20;95.70
42201;DHT22;27869;51.442;7.540;2022-08-19T12:59:04;27.20;94.80
42201;DHT22;27869;51.442;7.540;2022-08-19T13:01:34;27.30;94.90
42201;DHT22;27869;51.442;7.540;2022-08-19T13:04:01;27.30;94.40
42201;DHT22;27869;51.442;7.540;2022-08-19T13:06:29;27.40;94.40
42201;DHT22;27869;51.442;7.540;2022-08-19T13:08:55;27.20;93.80
42201;DHT22;27869;51.442;7.540;2022-08-19T13:11:24;27.10;93.90
42201;DHT22;27869;51.442;7.540;2022-08-19T13:13:52;27.00;93.90
42201;DHT22;27869;51.442;7.540;2022-08-19T13:16:20;26.90;92.50
42201;DHT22;27869;51.442;7.540;2022-08-19T13:18:49;26.90;93.60
42201;DHT22;27869;51.442;7.540;2022-08-19T13:21:18;26.90;93.40
42201;DHT22;27869;51.442;7.540;2022-08-19T13:23:46;26.90;93.10
42201;DHT22;27869;51.442;7.540;2022-08-19T13:26:13;27.00;93.20
42201;DHT22;27869;51.442;7.540;2022-08-19T13:28:41;27.00;93.00
42201;DHT22;27869;51.442;7.540;2022-08-19T13:31:28;27.10;93.00
42201;DHT22;27869;51.442;7.540;2022-08-19T13:34:14;27.20;92.50
42201;DHT22;27869;51.442;7.540;2022-08-19T13:36:42;27.10;92.40
42201;DHT22;27869;51.442;7.540;2022-08-19T13:39:09;27.00;92.60
42201;DHT22;27869;51.442;7.540;2022-08-19T13:41:36;26.90;92.30
42201;DHT22;27869;51.442;7.540;2022-08-19T13:44:04;26.90;92.20
42201;DHT22;27869;51.442;7.540;2022-08-19T13:46:31;26.80;92.20
42201;DHT22;27869;51.442;7.540;2022-08-19T13:48:58;26.70;92.30
42201;DHT22;27869;51.442;7.540;2022-08-19T13:51:26;26.70;92.60
42201;DHT22;27869;51.442;7.540;2022-08-19T13:53:53;26.80;92.00
42201;DHT22;27869;51.442;7.540;2022-08-19T13:56:21;26.80;92.10
42201;DHT22;27869;51.442;7.540;2022-08-19T13:58:48;26.80;92.00
42201;DHT22;27869;51.442;7.540;2022-08-19T14:01:20;26.90;91.70
42201;DHT22;27869;51.442;7.540;2022-08-19T14:03:47;26.90;90.80
42201;DHT22;27869;51.442;7.540;2022-08-19T14:06:14;26.90;90.60
42201;DHT22;27869;51.442;7.540;2022-08-19T14:08:43;26.90;90.90
42201;DHT22;27869;51.442;7.540;2022-08-19T14:11:10;26.90;91.00
42201;DHT22;27869;51.442;7.540;2022-08-19T14:13:37;26.90;90.80
42201;DHT22;27869;51.442;7.540;2022-08-19T14:16:07;26.90;90.90
42201;DHT22;27869;51.442;7.540;2022-08-19T14:18:35;26.90;90.60
42201;DHT22;27869;51.442;7.540;2022-08-19T14:21:02;26.90;90.40
42201;DHT22;27869;51.442;7.540;2022-08-19T14:23:30;26.90;90.50
42201;DHT22;27869;51.442;7.540;2022-08-19T14:26:07;26.90;90.40
42201;DHT22;27869;51.442;7.540;2022-08-19T14:28:34;27.00;90.30
42201;DHT22;27869;51.442;7.540;2022-08-19T14:31:01;27.00;90.70
42201;DHT22;27869;51.442;7.540;2022-08-19T14:33:28;27.00;90.30
42201;DHT22;27869;51.442;7.540;2022-08-19T14:35:55;27.00;90.20
42201;DHT22;27869;51.442;7.540;2022-08-19T14:38:22;26.90;90.20
42201;DHT22;27869;51.442;7.540;2022-08-19T14:40:49;26.80;90.20
42201;DHT22;27869;51.442;7.540;2022-08-19T14:43:18;26.80;89.70
42201;DHT22;27869;51.442;7.540;2022-08-19T14:45:45;26.70;89.60
42201;DHT22;27869;51.442;7.540;2022-08-19T14:48:12;26.60;89.50
42201;DHT22;27869;51.442;7.540;2022-08-19T14:50:39;26.60;89.40
42201;DHT22;27869;51.442;7.540;2022-08-19T14:53:08;26.60;89.50
42201;DHT22;27869;51.442;7.540;2022-08-19T14:55:34;26.60;89.60
42201;DHT22;27869;51.442;7.540;2022-08-19T14:58:01;26.60;89.00
42201;DHT22;27869;51.442;7.540;2022-08-19T15:00:30;26.50;88.60
42201;DHT22;27869;51.442;7.540;2022-08-19T15:02:56;26.40;90.20
42201;DHT22;27869;51.442;7.540;2022-08-19T15:05:24;26.40;90.30
42201;DHT22;27869;51.442;7.540;2022-08-19T15:07:52;26.50;90.20
42201;DHT22;27869;51.442;7.540;2022-08-19T15:10:22;26.50;90.10
42201;DHT22;27869;51.442;7.540;2022-08-19T15:12:50;26.60;90.20
42201;DHT22;27869;51.442;7.540;2022-08-19T15:15:17;26.70;90.20
42201;DHT22;27869;51.442;7.540;2022-08-19T15:17:46;26.80;89.70
42201;DHT22;27869;51.442;7.540;2022-08-19T15:20:15;26.90;89.30
42201;DHT22;27869;51.442;7.540;2022-08-19T15:22:42;26.90;89.00
42201;DHT22;27869;51.442;7.540;2022-08-19T15:25:12;26.90;88.70
42201;DHT22;27869;51.442;7.540;2022-08-19T15:27:40;26.90;88.60
42201;DHT22;27869;51.442;7.540;2022-08-19T15:30:09;26.90;89.30
42201;DHT22;27869;51.442;7.540;2022-08-19T15:32:37;27.00;89.30
42201;DHT22;27869;51.442;7.540;2022-08-19T15:35:07;27.00;87.70
42201;DHT22;27869;51.442;7.540;2022-08-19T15:37:34;26.90;86.90
42201;DHT22;27869;51.442;7.540;2022-08-19T15:40:02;26.90;87.60